sensor_id;sensor_type;location;lat;lon;timestamp;P1;durP1;ratioP1;P2;durP2;ratioP2
61531;SDS011;47397;48.194;11.632;2023-09-18T00:00:08;6.95;;;5.72;;
61531;SDS011;47397;48.194;11.632;2023-09-18T00:01:09;6.13;;;5.15;;
61531;SDS011;47397;48.194;11.632;2023-09-18T00:02:10;7.63;;;6.00;;
61531;SDS011;47397;48.194;11.632;2023-09-18T00:03:11;7.95;;;5.47;;
61531;SDS011;47397;48.194;11.632;2023-09-18T00:04:12;9.27;;;5.45;;
61531;SDS011;47397;48.194;11.632;2023-09-18T00:05:12;6.38;;;5.15;;
61531;SDS011;47397;48.194;11.632;2023-09-18T00:06:13;10.93;;;6.03;;
61531;SDS011;47397;48.194;11.632;2023-09-18T00:07:13;7.75;;;5.25;;
61531;SDS011;47397;48.194;11.632;2023-09-18T00:08:14;9.18;;;5.53;;
61531;SDS011;47397;48.194;11.632;2023-09-18T00:09:14;10.35;;;5.45;;
61531;SDS011;47397;48.194;11.632;2023-09-18T00:10:15;8.15;;;5.30;;
61531;SDS011;47397;48.194;11.632;2023-09-18T00:11:15;7.53;;;5.75;;
61531;SDS011;47397;48.194;11.632;2023-09-18T00:12:16;8.82;;;5.40;;
61531;SDS011;47397;48.194;11.632;2023-09-18T00:13:16;7.28;;;5.32;;
61531;SDS011;47397;48.194;11.632;2023-09-18T00:14:17;8.93;;;5.15;;
61531;SDS011;47397;48.194;11.632;2023-09-18T00:15:17;11.18;;;5.63;;
61531;SDS011;47397;48.194;11.632;2023-09-18T00:16:18;6.32;;;5.38;;
61531;SDS011;47397;48.194;11.632;2023-09-18T00:17:18;7.70;;;5.40;;
61531;SDS011;47397;48.194;11.632;2023-09-18T00:18:20;6.63;;;4.85;;
61531;SDS011;47397;48.194;11.632;2023-09-18T00:19:20;7.97;;;5.43;;
61531;SDS011;47397;48.194;11.632;2023-09-18T00:20:21;6.32;;;4.90;;
61531;SDS011;47397;48.194;11.632;2023-09-18T00:21:21;8.13;;;5.13;;
61531;SDS011;47397;48.194;11.632;2023-09-18T00:22:22;6.38;;;5.00;;
61531;SDS011;47397;48.194;11.632;2023-09-18T00:23:22;8.73;;;5.13;;
61531;SDS011;47397;48.194;11.632;2023-09-18T00:24:23;10.02;;;5.28;;
61531;SDS011;47397;48.194;11.632;2023-09-18T00:25:23;6.32;;;5.07;;
61531;SDS011;47397;48.194;11.632;2023-09-18T00:26:24;7.05;;;5.13;;
61531;SDS011;47397;48.194;11.632;2023-09-18T00:27:24;6.50;;;4.55;;
61531;SDS011;47397;48.194;11.632;2023-09-18T00:28:25;5.70;;;4.65;;
61531;SDS011;47397;48.194;11.632;2023-09-18T00:29:25;7.78;;;5.07;;
61531;SDS011;47397;48.194;11.632;2023-09-18T00:30:26;6.20;;;4.90;;
61531;SDS011;47397;48.194;11.632;2023-09-18T00:31:26;7.32;;;4.88;;
61531;SDS011;47397;48.194;11.632;2023-09-18T00:32:27;6.40;;;4.78;;
61531;SDS011;47397;48.194;11.632;2023-09-18T00:33:29;6.53;;;4.57;;
61531;SDS011;47397;48.194;11.632;2023-09-18T00:34:29;6.55;;;5.10;;
61531;SDS011;47397;48.194;11.632;2023-09-18T00:35:30;5.93;;;4.93;;
61531;SDS011;47397;48.194;11.632;2023-09-18T00:36:30;7.90;;;4.97;;
61531;SDS011;47397;48.194;11.632;2023-09-18T00:37:31;8.13;;;4.78;;
61531;SDS011;47397;48.194;11.632;2023-09-18T00:38:31;6.53;;;4.50;;
61531;SDS011;47397;48.194;11.632;2023-09-18T00:39:31;7.25;;;4.82;;
61531;SDS011;47397;48.194;11.632;2023-09-18T00:40:32;6.85;;;5.00;;
61531;SDS011;47397;48.194;11.632;2023-09-18T00:41:32;6.55;;;5.32;;
61531;SDS011;47397;48.194;11.632;2023-09-18T00:42:33;6.88;;;4.57;;
61531;SDS011;47397;48.194;11.632;2023-09-18T00:43:33;7.90;;;5.25;;
61531;SDS011;47397;48.194;11.632;2023-09-18T00:44:33;8.93;;;5.13;;
61531;SDS011;47397;48.194;11.632;2023-09-18T00:45:34;7.57;;;4.93;;
61531;SDS011;47397;48.194;11.632;2023-09-18T00:46:39;7.22;;;4.68;;
61531;SDS011;47397;48.194;11.632;2023-09-18T00:47:40;6.25;;;4.40;;
61531;SDS011;47397;48.194;11.632;2023-09-18T00:48:42;7.68;;;4.60;;
61531;SDS011;47397;48.194;11.632;2023-09-18T00:49:43;8.43;;;5.05;;
61531;SDS011;47397;48.194;11.632;2023-09-18T00:50:47;6.28;;;4.57;;
61531;SDS011;47397;48.194;11.632;2023-09-18T00:51:48;7.93;;;4.90;;
61531;SDS011;47397;48.194;11.632;2023-09-18T00:52:49;7.65;;;4.57;;
61531;SDS011;47397;48.194;11.632;2023-09-18T00:53:50;7.30;;;4.28;;
61531;SDS011;47397;48.194;11.632;2023-09-18T00:54:51;8.45;;;4.88;;
61531;SDS011;47397;48.194;11.632;2023-09-18T00:55:53;5.80;;;4.68;;
61531;SDS011;47397;48.194;11.632;2023-09-18T00:56:55;8.90;;;4.97;;
61531;SDS011;47397;48.194;11.632;2023-09-18T00:57:56;7.07;;;4.65;;
61531;SDS011;47397;48.194;11.632;2023-09-18T00:58:56;6.93;;;5.10;;
61531;SDS011;47397;48.194;11.632;2023-09-18T00:59:57;7.28;;;4.85;;
61531;SDS011;47397;48.194;11.632;2023-09-18T01:00:57;8.18;;;5.07;;
61531;SDS011;47397;48.194;11.632;2023-09-18T01:01:58;6.25;;;4.55;;
61531;SDS011;47397;48.194;11.632;2023-09-18T01:02:59;7.05;;;4.82;;
61531;SDS011;47397;48.194;11.632;2023-09-18T01:04:02;6.03;;;4.30;;
61531;SDS011;47397;48.194;11.632;2023-09-18T01:05:03;7.22;;;4.85;;
61531;SDS011;47397;48.194;11.632;2023-09-18T01:06:04;6.97;;;4.63;;
61531;SDS011;47397;48.194;11.632;2023-09-18T01:07:04;7.43;;;4.95;;
61531;SDS011;47397;48.194;11.632;2023-09-18T01:08:05;6.25;;;4.47;;
61531;SDS011;47397;48.194;11.632;2023-09-18T01:09:05;7.00;;;4.47;;
61531;SDS011;47397;48.194;11.632;2023-09-18T01:10:06;7.72;;;4.90;;
61531;SDS011;47397;48.194;11.632;2023-09-18T01:11:09;6.78;;;4.85;;
61531;SDS011;47397;48.194;11.632;2023-09-18T01:12:16;7.80;;;5.20;;
61531;SDS011;47397;48.194;11.632;2023-09-18T01:13:20;5.95;;;4.65;;
61531;SDS011;47397;48.194;11.632;2023-09-18T01:14:25;5.30;;;4.43;;
61531;SDS011;47397;48.194;11.632;2023-09-18T01:15:32;6.95;;;4.60;;
61531;SDS011;47397;48.194;11.632;2023-09-18T01:16:37;6.88;;;4.50;;
61531;SDS011;47397;48.194;11.632;2023-09-18T01:17:41;7.18;;;5.10;;
61531;SDS011;47397;48.194;11.632;2023-09-18T01:18:48;5.50;;;4.90;;
61531;SDS011;47397;48.194;11.632;2023-09-18T01:19:50;6.07;;;4.97;;
61531;SDS011;47397;48.194;11.632;2023-09-18T01:20:50;7.15;;;4.97;;
61531;SDS011;47397;48.194;11.632;2023-09-18T01:21:51;6.97;;;4.97;;
61531;SDS011;47397;48.194;11.632;2023-09-18T01:22:53;6.65;;;4.78;;
61531;SDS011;47397;48.194;11.632;2023-09-18T01:23:53;6.70;;;4.65;;
61531;SDS011;47397;48.194;11.632;2023-09-18T01:24:53;7.47;;;4.40;;
61531;SDS011;47397;48.194;11.632;2023-09-18T01:25:54;7.15;;;4.78;;
61531;SDS011;47397;48.194;11.632;2023-09-18T01:26:54;6.82;;;4.55;;
61531;SDS011;47397;48.194;11.632;2023-09-18T01:27:55;6.97;;;4.40;;
61531;SDS011;47397;48.194;11.632;2023-09-18T01:28:55;7.60;;;4.70;;
61531;SDS011;47397;48.194;11.632;2023-09-18T01:29:55;6.28;;;4.68;;
61531;SDS011;47397;48.194;11.632;2023-09-18T01:30:56;6.90;;;4.50;;
61531;SDS011;47397;48.194;11.632;2023-09-18T01:31:56;6.95;;;4.60;;
61531;SDS011;47397;48.194;11.632;2023-09-18T01:32:57;9.57;;;4.78;;
61531;SDS011;47397;48.194;11.632;2023-09-18T01:33:59;6.20;;;4.75;;
61531;SDS011;47397;48.194;11.632;2023-09-18T01:35:00;6.93;;;4.70;;
61531;SDS011;47397;48.194;11.632;2023-09-18T01:36:02;7.57;;;4.70;;
61531;SDS011;47397;48.194;11.632;2023-09-18T01:37:05;7.05;;;4.82;;
61531;SDS011;47397;48.194;11.632;2023-09-18T01:38:07;7.63;;;5.03;;
61531;SDS011;47397;48.194;11.632;2023-09-18T01:39:08;6.60;;;4.22;;
61531;SDS011;47397;48.194;11.632;2023-09-18T01:40:09;7.88;;;5.22;;
61531;SDS011;47397;48.194;11.632;2023-09-18T01:41:09;7.85;;;4.72;;
61531;SDS011;47397;48.194;11.632;2023-09-18T01:42:10;7.88;;;4.85;;
61531;SDS011;47397;48.194;11.632;2023-09-18T01:43:10;7.00;;;4.70;;
61531;SDS011;47397;48.194;11.632;2023-09-18T01:44:10;5.93;;;4.93;;
61531;SDS011;47397;48.194;11.632;2023-09-18T01:45:11;6.13;;;4.43;;
61531;SDS011;47397;48.194;11.632;2023-09-18T01:46:11;6.85;;;4.57;;
61531;SDS011;47397;48.194;11.632;2023-09-18T01:47:14;8.40;;;4.47;;
61531;SDS011;47397;48.194;11.632;2023-09-18T01:48:16;7.05;;;4.75;;
61531;SDS011;47397;48.194;11.632;2023-09-18T01:49:19;6.93;;;4.50;;
61531;SDS011;47397;48.194;11.632;2023-09-18T01:50:26;5.15;;;4.10;;
61531;SDS011;47397;48.194;11.632;2023-09-18T01:51:27;7.03;;;4.60;;
61531;SDS011;47397;48.194;11.632;2023-09-18T01:52:27;9.73;;;5.05;;
61531;SDS011;47397;48.194;11.632;2023-09-18T01:53:29;6.68;;;4.70;;
61531;SDS011;47397;48.194;11.632;2023-09-18T01:54:29;6.32;;;4.63;;
61531;SDS011;47397;48.194;11.632;2023-09-18T01:55:30;5.93;;;4.53;;
61531;SDS011;47397;48.194;11.632;2023-09-18T01:56:31;7.07;;;4.60;;
61531;SDS011;47397;48.194;11.632;2023-09-18T01:57:31;6.20;;;4.32;;
61531;SDS011;47397;48.194;11.632;2023-09-18T01:58:32;6.40;;;5.40;;
61531;SDS011;47397;48.194;11.632;2023-09-18T01:59:32;7.22;;;4.93;;
61531;SDS011;47397;48.194;11.632;2023-09-18T02:00:33;8.85;;;4.50;;
61531;SDS011;47397;48.194;11.632;2023-09-18T02:01:34;6.85;;;4.90;;
61531;SDS011;47397;48.194;11.632;2023-09-18T02:02:35;8.15;;;4.72;;
61531;SDS011;47397;48.194;11.632;2023-09-18T02:03:36;5.55;;;4.40;;
61531;SDS011;47397;48.194;11.632;2023-09-18T02:04:36;7.68;;;5.00;;
61531;SDS011;47397;48.194;11.632;2023-09-18T02:05:36;6.63;;;4.55;;
61531;SDS011;47397;48.194;11.632;2023-09-18T02:06:37;6.53;;;4.55;;
61531;SDS011;47397;48.194;11.632;2023-09-18T02:07:37;7.18;;;4.75;;
61531;SDS011;47397;48.194;11.632;2023-09-18T02:08:39;6.80;;;4.82;;
61531;SDS011;47397;48.194;11.632;2023-09-18T02:09:39;7.10;;;5.20;;
61531;SDS011;47397;48.194;11.632;2023-09-18T02:10:40;8.20;;;4.97;;
61531;SDS011;47397;48.194;11.632;2023-09-18T02:11:41;6.70;;;5.00;;
61531;SDS011;47397;48.194;11.632;2023-09-18T02:12:42;8.45;;;5.00;;
61531;SDS011;47397;48.194;11.632;2023-09-18T02:13:42;6.20;;;4.30;;
61531;SDS011;47397;48.194;11.632;2023-09-18T02:14:43;6.55;;;4.50;;
61531;SDS011;47397;48.194;11.632;2023-09-18T02:15:44;6.95;;;4.55;;
61531;SDS011;47397;48.194;11.632;2023-09-18T02:16:45;6.60;;;5.00;;
61531;SDS011;47397;48.194;11.632;2023-09-18T02:17:45;6.85;;;4.93;;
61531;SDS011;47397;48.194;11.632;2023-09-18T02:18:46;5.82;;;4.55;;
61531;SDS011;47397;48.194;11.632;2023-09-18T02:19:46;8.27;;;5.07;;
61531;SDS011;47397;48.194;11.632;2023-09-18T02:20:46;5.72;;;4.00;;
61531;SDS011;47397;48.194;11.632;2023-09-18T02:21:47;8.60;;;4.65;;
61531;SDS011;47397;48.194;11.632;2023-09-18T02:22:47;7.15;;;4.90;;
61531;SDS011;47397;48.194;11.632;2023-09-18T02:23:50;5.93;;;4.60;;
61531;SDS011;47397;48.194;11.632;2023-09-18T02:24:50;9.05;;;4.60;;
61531;SDS011;47397;48.194;11.632;2023-09-18T02:25:55;6.60;;;4.50;;
61531;SDS011;47397;48.194;11.632;2023-09-18T02:26:56;7.13;;;4.55;;
61531;SDS011;47397;48.194;11.632;2023-09-18T02:27:56;6.55;;;4.47;;
61531;SDS011;47397;48.194;11.632;2023-09-18T02:28:57;5.57;;;4.20;;
61531;SDS011;47397;48.194;11.632;2023-09-18T02:29:58;8.27;;;5.00;;
61531;SDS011;47397;48.194;11.632;2023-09-18T02:30:59;7.40;;;4.72;;
61531;SDS011;47397;48.194;11.632;2023-09-18T02:31:59;8.73;;;4.65;;
61531;SDS011;47397;48.194;11.632;2023-09-18T02:33:00;5.93;;;4.93;;
61531;SDS011;47397;48.194;11.632;2023-09-18T02:34:00;6.15;;;4.50;;
61531;SDS011;47397;48.194;11.632;2023-09-18T02:35:01;6.55;;;4.28;;
61531;SDS011;47397;48.194;11.632;2023-09-18T02:36:01;6.88;;;4.43;;
61531;SDS011;47397;48.194;11.632;2023-09-18T02:37:01;8.30;;;4.95;;
61531;SDS011;47397;48.194;11.632;2023-09-18T02:38:02;7.07;;;4.60;;
61531;SDS011;47397;48.194;11.632;2023-09-18T02:39:04;5.40;;;4.28;;
61531;SDS011;47397;48.194;11.632;2023-09-18T02:40:05;7.35;;;4.47;;
61531;SDS011;47397;48.194;11.632;2023-09-18T02:41:06;8.07;;;4.78;;
61531;SDS011;47397;48.194;11.632;2023-09-18T02:42:07;6.07;;;4.72;;
61531;SDS011;47397;48.194;11.632;2023-09-18T02:43:08;8.15;;;4.97;;
61531;SDS011;47397;48.194;11.632;2023-09-18T02:44:08;6.35;;;5.10;;
61531;SDS011;47397;48.194;11.632;2023-09-18T02:45:08;7.00;;;4.63;;
61531;SDS011;47397;48.194;11.632;2023-09-18T02:46:09;6.85;;;4.45;;
61531;SDS011;47397;48.194;11.632;2023-09-18T02:47:09;8.00;;;4.47;;
61531;SDS011;47397;48.194;11.632;2023-09-18T02:48:10;7.35;;;4.55;;
61531;SDS011;47397;48.194;11.632;2023-09-18T02:49:10;6.60;;;4.47;;
61531;SDS011;47397;48.194;11.632;2023-09-18T02:50:11;10.98;;;4.95;;
61531;SDS011;47397;48.194;11.632;2023-09-18T02:51:11;7.65;;;4.57;;
61531;SDS011;47397;48.194;11.632;2023-09-18T02:52:11;5.70;;;4.55;;
61531;SDS011;47397;48.194;11.632;2023-09-18T02:53:16;9.43;;;4.68;;
61531;SDS011;47397;48.194;11.632;2023-09-18T02:54:18;7.78;;;4.20;;
61531;SDS011;47397;48.194;11.632;2023-09-18T02:55:19;5.70;;;4.28;;
61531;SDS011;47397;48.194;11.632;2023-09-18T02:56:19;6.45;;;4.15;;
61531;SDS011;47397;48.194;11.632;2023-09-18T02:57:20;6.40;;;4.90;;
61531;SDS011;47397;48.194;11.632;2023-09-18T02:58:20;6.40;;;4.63;;
61531;SDS011;47397;48.194;11.632;2023-09-18T02:59:21;5.90;;;4.70;;
61531;SDS011;47397;48.194;11.632;2023-09-18T03:00:22;5.57;;;4.20;;
61531;SDS011;47397;48.194;11.632;2023-09-18T03:01:22;7.30;;;4.10;;
61531;SDS011;47397;48.194;11.632;2023-09-18T03:02:23;6.95;;;4.70;;
61531;SDS011;47397;48.194;11.632;2023-09-18T03:03:23;7.88;;;4.38;;
61531;SDS011;47397;48.194;11.632;2023-09-18T03:04:23;7.47;;;4.47;;
61531;SDS011;47397;48.194;11.632;2023-09-18T03:05:24;6.90;;;4.05;;
61531;SDS011;47397;48.194;11.632;2023-09-18T03:06:24;5.70;;;4.10;;
61531;SDS011;47397;48.194;11.632;2023-09-18T03:07:25;6.78;;;4.40;;
61531;SDS011;47397;48.194;11.632;2023-09-18T03:08:25;5.88;;;4.45;;
61531;SDS011;47397;48.194;11.632;2023-09-18T03:09:27;6.55;;;4.50;;
61531;SDS011;47397;48.194;11.632;2023-09-18T03:10:27;5.97;;;4.10;;
61531;SDS011;47397;48.194;11.632;2023-09-18T03:11:28;6.82;;;4.00;;
61531;SDS011;47397;48.194;11.632;2023-09-18T03:12:28;6.88;;;4.47;;
61531;SDS011;47397;48.194;11.632;2023-09-18T03:13:29;7.65;;;4.40;;
61531;SDS011;47397;48.194;11.632;2023-09-18T03:14:31;8.77;;;4.85;;
61531;SDS011;47397;48.194;11.632;2023-09-18T03:15:31;5.97;;;4.20;;
61531;SDS011;47397;48.194;11.632;2023-09-18T03:16:32;5.68;;;4.10;;
61531;SDS011;47397;48.194;11.632;2023-09-18T03:17:32;7.95;;;4.28;;
61531;SDS011;47397;48.194;11.632;2023-09-18T03:18:33;7.97;;;4.05;;
61531;SDS011;47397;48.194;11.632;2023-09-18T03:19:33;6.20;;;4.30;;
61531;SDS011;47397;48.194;11.632;2023-09-18T03:20:33;7.70;;;4.22;;
61531;SDS011;47397;48.194;11.632;2023-09-18T03:21:34;7.53;;;4.18;;
61531;SDS011;47397;48.194;11.632;2023-09-18T03:22:34;5.32;;;4.60;;
61531;SDS011;47397;48.194;11.632;2023-09-18T03:23:35;5.03;;;3.70;;
61531;SDS011;47397;48.194;11.632;2023-09-18T03:24:36;6.50;;;3.95;;
61531;SDS011;47397;48.194;11.632;2023-09-18T03:25:37;7.43;;;4.20;;
61531;SDS011;47397;48.194;11.632;2023-09-18T03:26:37;7.93;;;4.65;;
61531;SDS011;47397;48.194;11.632;2023-09-18T03:27:38;6.88;;;4.40;;
61531;SDS011;47397;48.194;11.632;2023-09-18T03:28:38;7.10;;;4.60;;
61531;SDS011;47397;48.194;11.632;2023-09-18T03:29:38;5.88;;;4.43;;
61531;SDS011;47397;48.194;11.632;2023-09-18T03:30:39;5.57;;;4.30;;
61531;SDS011;47397;48.194;11.632;2023-09-18T03:31:39;5.68;;;3.80;;
61531;SDS011;47397;48.194;11.632;2023-09-18T03:32:40;6.57;;;4.43;;
61531;SDS011;47397;48.194;11.632;2023-09-18T03:33:40;8.20;;;4.38;;
61531;SDS011;47397;48.194;11.632;2023-09-18T03:34:40;7.57;;;4.72;;
61531;SDS011;47397;48.194;11.632;2023-09-18T03:35:47;6.40;;;4.45;;
61531;SDS011;47397;48.194;11.632;2023-09-18T03:36:48;8.60;;;4.63;;
61531;SDS011;47397;48.194;11.632;2023-09-18T03:37:49;6.38;;;4.20;;
61531;SDS011;47397;48.194;11.632;2023-09-18T03:38:51;6.50;;;4.10;;
61531;SDS011;47397;48.194;11.632;2023-09-18T03:39:52;5.90;;;4.22;;
61531;SDS011;47397;48.194;11.632;2023-09-18T03:40:53;6.03;;;4.57;;
61531;SDS011;47397;48.194;11.632;2023-09-18T03:41:53;6.82;;;4.45;;
61531;SDS011;47397;48.194;11.632;2023-09-18T03:42:54;6.80;;;4.28;;
61531;SDS011;47397;48.194;11.632;2023-09-18T03:43:54;5.85;;;4.38;;
61531;SDS011;47397;48.194;11.632;2023-09-18T03:44:54;4.75;;;3.95;;
61531;SDS011;47397;48.194;11.632;2023-09-18T03:45:55;6.72;;;4.30;;
61531;SDS011;47397;48.194;11.632;2023-09-18T03:47:03;6.03;;;4.68;;
61531;SDS011;47397;48.194;11.632;2023-09-18T03:48:04;5.70;;;4.20;;
61531;SDS011;47397;48.194;11.632;2023-09-18T03:49:04;6.25;;;5.03;;
61531;SDS011;47397;48.194;11.632;2023-09-18T03:50:05;7.25;;;3.95;;
61531;SDS011;47397;48.194;11.632;2023-09-18T03:51:06;6.65;;;4.30;;
61531;SDS011;47397;48.194;11.632;2023-09-18T03:52:07;7.65;;;4.50;;
61531;SDS011;47397;48.194;11.632;2023-09-18T03:53:08;6.57;;;4.38;;
61531;SDS011;47397;48.194;11.632;2023-09-18T03:54:10;7.38;;;4.10;;
61531;SDS011;47397;48.194;11.632;2023-09-18T03:55:12;6.85;;;4.00;;
61531;SDS011;47397;48.194;11.632;2023-09-18T03:56:12;5.85;;;3.92;;
61531;SDS011;47397;48.194;11.632;2023-09-18T03:57:12;6.38;;;4.22;;
61531;SDS011;47397;48.194;11.632;2023-09-18T03:58:13;7.65;;;4.68;;
61531;SDS011;47397;48.194;11.632;2023-09-18T03:59:13;9.88;;;4.53;;
61531;SDS011;47397;48.194;11.632;2023-09-18T04:00:14;7.70;;;4.22;;
61531;SDS011;47397;48.194;11.632;2023-09-18T04:01:15;4.85;;;4.10;;
61531;SDS011;47397;48.194;11.632;2023-09-18T04:02:15;6.53;;;4.05;;
61531;SDS011;47397;48.194;11.632;2023-09-18T04:03:16;6.07;;;4.20;;
61531;SDS011;47397;48.194;11.632;2023-09-18T04:04:16;7.68;;;4.70;;
61531;SDS011;47397;48.194;11.632;2023-09-18T04:05:16;6.75;;;4.13;;
61531;SDS011;47397;48.194;11.632;2023-09-18T04:06:17;4.75;;;4.10;;
61531;SDS011;47397;48.194;11.632;2023-09-18T04:07:17;6.68;;;4.13;;
61531;SDS011;47397;48.194;11.632;2023-09-18T04:08:18;5.65;;;4.30;;
61531;SDS011;47397;48.194;11.632;2023-09-18T04:09:18;5.20;;;3.75;;
61531;SDS011;47397;48.194;11.632;2023-09-18T04:10:20;6.60;;;3.90;;
61531;SDS011;47397;48.194;11.632;2023-09-18T04:11:20;6.45;;;3.63;;
61531;SDS011;47397;48.194;11.632;2023-09-18T04:12:20;7.40;;;4.50;;
61531;SDS011;47397;48.194;11.632;2023-09-18T04:13:21;6.18;;;3.95;;
61531;SDS011;47397;48.194;11.632;2023-09-18T04:14:21;8.25;;;4.20;;
61531;SDS011;47397;48.194;11.632;2023-09-18T04:15:22;7.10;;;3.95;;
61531;SDS011;47397;48.194;11.632;2023-09-18T04:16:22;6.60;;;4.28;;
61531;SDS011;47397;48.194;11.632;2023-09-18T04:17:23;7.05;;;4.15;;
61531;SDS011;47397;48.194;11.632;2023-09-18T04:18:23;6.50;;;3.92;;
61531;SDS011;47397;48.194;11.632;2023-09-18T04:19:24;6.05;;;4.10;;
61531;SDS011;47397;48.194;11.632;2023-09-18T04:20:24;5.47;;;4.10;;
61531;SDS011;47397;48.194;11.632;2023-09-18T04:21:25;6.15;;;4.32;;
61531;SDS011;47397;48.194;11.632;2023-09-18T04:22:25;6.07;;;4.30;;
61531;SDS011;47397;48.194;11.632;2023-09-18T04:23:26;6.60;;;3.92;;
61531;SDS011;47397;48.194;11.632;2023-09-18T04:24:27;6.15;;;4.13;;
61531;SDS011;47397;48.194;11.632;2023-09-18T04:25:29;6.22;;;3.95;;
61531;SDS011;47397;48.194;11.632;2023-09-18T04:26:29;6.13;;;4.15;;
61531;SDS011;47397;48.194;11.632;2023-09-18T04:27:29;5.60;;;4.15;;
61531;SDS011;47397;48.194;11.632;2023-09-18T04:28:30;7.88;;;4.47;;
61531;SDS011;47397;48.194;11.632;2023-09-18T04:29:30;5.63;;;4.10;;
61531;SDS011;47397;48.194;11.632;2023-09-18T04:30:31;5.90;;;4.20;;
61531;SDS011;47397;48.194;11.632;2023-09-18T04:31:31;7.88;;;4.03;;
61531;SDS011;47397;48.194;11.632;2023-09-18T04:32:32;7.18;;;3.63;;
61531;SDS011;47397;48.194;11.632;2023-09-18T04:33:32;6.03;;;3.85;;
61531;SDS011;47397;48.194;11.632;2023-09-18T04:34:33;7.53;;;4.00;;
61531;SDS011;47397;48.194;11.632;2023-09-18T04:35:33;6.03;;;3.92;;
61531;SDS011;47397;48.194;11.632;2023-09-18T04:36:34;8.15;;;4.38;;
61531;SDS011;47397;48.194;11.632;2023-09-18T04:37:35;7.50;;;4.38;;
61531;SDS011;47397;48.194;11.632;2023-09-18T04:38:36;6.38;;;4.35;;
61531;SDS011;47397;48.194;11.632;2023-09-18T04:39:37;5.30;;;4.10;;
61531;SDS011;47397;48.194;11.632;2023-09-18T04:40:39;7.43;;;4.30;;
61531;SDS011;47397;48.194;11.632;2023-09-18T04:41:39;5.65;;;3.83;;
61531;SDS011;47397;48.194;11.632;2023-09-18T04:42:40;6.53;;;4.35;;
61531;SDS011;47397;48.194;11.632;2023-09-18T04:43:40;6.13;;;4.22;;
61531;SDS011;47397;48.194;11.632;2023-09-18T04:44:41;5.18;;;4.05;;
61531;SDS011;47397;48.194;11.632;2023-09-18T04:45:41;6.18;;;4.15;;
61531;SDS011;47397;48.194;11.632;2023-09-18T04:46:41;7.70;;;3.80;;
61531;SDS011;47397;48.194;11.632;2023-09-18T04:47:42;5.95;;;3.60;;
61531;SDS011;47397;48.194;11.632;2023-09-18T04:48:42;4.63;;;3.67;;
61531;SDS011;47397;48.194;11.632;2023-09-18T04:49:43;6.13;;;4.22;;
61531;SDS011;47397;48.194;11.632;2023-09-18T04:50:43;7.15;;;4.03;;
61531;SDS011;47397;48.194;11.632;2023-09-18T04:51:44;9.77;;;4.38;;
61531;SDS011;47397;48.194;11.632;2023-09-18T04:52:44;6.75;;;3.88;;
61531;SDS011;47397;48.194;11.632;2023-09-18T04:53:44;5.82;;;4.00;;
61531;SDS011;47397;48.194;11.632;2023-09-18T04:54:45;8.98;;;4.28;;
61531;SDS011;47397;48.194;11.632;2023-09-18T04:55:47;5.85;;;4.05;;
61531;SDS011;47397;48.194;11.632;2023-09-18T04:56:47;7.63;;;3.67;;
61531;SDS011;47397;48.194;11.632;2023-09-18T04:57:47;5.18;;;3.55;;
61531;SDS011;47397;48.194;11.632;2023-09-18T04:58:48;5.55;;;3.92;;
61531;SDS011;47397;48.194;11.632;2023-09-18T04:59:48;5.68;;;3.72;;
61531;SDS011;47397;48.194;11.632;2023-09-18T05:00:53;6.88;;;3.90;;
61531;SDS011;47397;48.194;11.632;2023-09-18T05:01:54;6.03;;;3.72;;
61531;SDS011;47397;48.194;11.632;2023-09-18T05:02:54;6.15;;;4.13;;
61531;SDS011;47397;48.194;11.632;2023-09-18T05:03:54;4.85;;;3.40;;
61531;SDS011;47397;48.194;11.632;2023-09-18T05:04:55;5.43;;;3.83;;
61531;SDS011;47397;48.194;11.632;2023-09-18T05:05:56;6.45;;;3.78;;
61531;SDS011;47397;48.194;11.632;2023-09-18T05:06:56;5.63;;;4.07;;
61531;SDS011;47397;48.194;11.632;2023-09-18T05:07:56;7.47;;;3.88;;
61531;SDS011;47397;48.194;11.632;2023-09-18T05:08:57;6.22;;;3.70;;
61531;SDS011;47397;48.194;11.632;2023-09-18T05:09:57;4.60;;;3.70;;
61531;SDS011;47397;48.194;11.632;2023-09-18T05:10:59;5.82;;;3.45;;
61531;SDS011;47397;48.194;11.632;2023-09-18T05:12:00;5.85;;;3.85;;
61531;SDS011;47397;48.194;11.632;2023-09-18T05:13:00;5.50;;;4.13;;
61531;SDS011;47397;48.194;11.632;2023-09-18T05:14:00;6.78;;;3.97;;
61531;SDS011;47397;48.194;11.632;2023-09-18T05:15:01;4.88;;;3.80;;
61531;SDS011;47397;48.194;11.632;2023-09-18T05:16:01;5.53;;;3.78;;
61531;SDS011;47397;48.194;11.632;2023-09-18T05:17:02;5.28;;;4.10;;
61531;SDS011;47397;48.194;11.632;2023-09-18T05:18:03;5.97;;;3.63;;
61531;SDS011;47397;48.194;11.632;2023-09-18T05:19:03;5.95;;;3.80;;
61531;SDS011;47397;48.194;11.632;2023-09-18T05:20:04;6.30;;;3.80;;
61531;SDS011;47397;48.194;11.632;2023-09-18T05:21:05;9.20;;;4.03;;
61531;SDS011;47397;48.194;11.632;2023-09-18T05:22:07;7.43;;;3.90;;
61531;SDS011;47397;48.194;11.632;2023-09-18T05:23:08;6.25;;;3.97;;
61531;SDS011;47397;48.194;11.632;2023-09-18T05:24:08;6.60;;;3.80;;
61531;SDS011;47397;48.194;11.632;2023-09-18T05:25:09;7.00;;;3.88;;
61531;SDS011;47397;48.194;11.632;2023-09-18T05:26:11;5.88;;;3.60;;
61531;SDS011;47397;48.194;11.632;2023-09-18T05:27:11;5.75;;;3.17;;
61531;SDS011;47397;48.194;11.632;2023-09-18T05:28:12;6.07;;;3.58;;
61531;SDS011;47397;48.194;11.632;2023-09-18T05:29:12;6.68;;;4.05;;
61531;SDS011;47397;48.194;11.632;2023-09-18T05:30:13;5.10;;;3.75;;
61531;SDS011;47397;48.194;11.632;2023-09-18T05:31:15;5.72;;;3.58;;
61531;SDS011;47397;48.194;11.632;2023-09-18T05:32:15;4.97;;;3.72;;
61531;SDS011;47397;48.194;11.632;2023-09-18T05:33:15;7.72;;;3.88;;
61531;SDS011;47397;48.194;11.632;2023-09-18T05:34:16;6.35;;;3.78;;
61531;SDS011;47397;48.194;11.632;2023-09-18T05:35:16;5.80;;;4.10;;
61531;SDS011;47397;48.194;11.632;2023-09-18T05:36:17;8.15;;;3.90;;
61531;SDS011;47397;48.194;11.632;2023-09-18T05:37:17;8.10;;;4.00;;
61531;SDS011;47397;48.194;11.632;2023-09-18T05:38:18;5.45;;;4.28;;
61531;SDS011;47397;48.194;11.632;2023-09-18T05:39:18;7.03;;;3.55;;
61531;SDS011;47397;48.194;11.632;2023-09-18T05:40:19;5.57;;;4.10;;
61531;SDS011;47397;48.194;11.632;2023-09-18T05:41:21;5.25;;;3.80;;
61531;SDS011;47397;48.194;11.632;2023-09-18T05:42:21;5.82;;;4.07;;
61531;SDS011;47397;48.194;11.632;2023-09-18T05:43:22;6.63;;;3.80;;
61531;SDS011;47397;48.194;11.632;2023-09-18T05:44:22;5.90;;;3.90;;
61531;SDS011;47397;48.194;11.632;2023-09-18T05:45:22;7.13;;;4.20;;
61531;SDS011;47397;48.194;11.632;2023-09-18T05:46:23;5.30;;;3.92;;
61531;SDS011;47397;48.194;11.632;2023-09-18T05:47:23;6.65;;;3.88;;
61531;SDS011;47397;48.194;11.632;2023-09-18T05:48:24;4.57;;;3.72;;
61531;SDS011;47397;48.194;11.632;2023-09-18T05:49:24;7.28;;;4.07;;
61531;SDS011;47397;48.194;11.632;2023-09-18T05:50:25;6.55;;;4.50;;
61531;SDS011;47397;48.194;11.632;2023-09-18T05:51:25;6.88;;;3.75;;
61531;SDS011;47397;48.194;11.632;2023-09-18T05:52:26;5.20;;;3.92;;
61531;SDS011;47397;48.194;11.632;2023-09-18T05:53:26;5.20;;;4.13;;
61531;SDS011;47397;48.194;11.632;2023-09-18T05:54:27;4.95;;;4.05;;
61531;SDS011;47397;48.194;11.632;2023-09-18T05:55:27;6.65;;;4.07;;
61531;SDS011;47397;48.194;11.632;2023-09-18T05:56:29;7.47;;;3.92;;
61531;SDS011;47397;48.194;11.632;2023-09-18T05:57:29;5.20;;;3.58;;
61531;SDS011;47397;48.194;11.632;2023-09-18T05:58:30;6.68;;;3.88;;
61531;SDS011;47397;48.194;11.632;2023-09-18T05:59:31;6.25;;;4.00;;
61531;SDS011;47397;48.194;11.632;2023-09-18T06:00:31;7.85;;;4.50;;